Time;durP1;ratioP1;P1;durP2;ratioP2;P2;SDS_P1;SDS_P2;PMS_P1;PMS_P2;Temp;Humidity;BMP_temperature;BMP_pressure;BME280_temperature;BME280_humidity;BME280_pressure;Samples;Min_cycle;Max_cycle;Signal;HPM_P1;HPM_P2
2023/07/01 00:01:52;;;;;;;;;;;;;;;;;;5032810;28;19929;-69
2023/07/01 00:04:19;;;;;;;;;;;;;;;;;;5033279;28;20305;-67
2023/07/01 00:06:45;;;;;;;;;;;;;;;;;;5032856;28;19936;-69
2023/07/01 00:09:11;;;;;;;;;;;;;;;;;;5033056;28;20359;-69
2023/07/01 00:11:38;;;;;;;;;;;;;;;;;;5032655;28;19932;-69
2023/07/01 00:14:06;;;;;;;;;;;;;;;;;;5032798;28;19944;-69
2023/07/01 00:16:32;;;;;;;;;;;;;;;;;;5032960;28;19929;-69
2023/07/01 00:18:58;;;;;;;;;;;;;;;;;;5032735;28;19931;-69
2023/07/01 00:21:25;;;;;;;;;;;;;;;;;;5032124;28;20386;-69
2023/07/01 00:23:51;;;;;;;;;;;;;;;;;;5032862;28;19925;-69
2023/07/01 00:26:17;;;;;;;;;;;;;;;;;;5032987;28;19932;-68
2023/07/01 00:28:44;;;;;;;;;;;;;;;;;;5032394;28;19925;-69
2023/07/01 00:31:12;;;;;;;;;;;;;;;;;;5032684;28;19925;-69
2023/07/01 00:33:38;;;;;;;;;;;;;;;;;;5032053;28;19925;-69
2023/07/01 00:36:05;;;;;;;;;;;;;;;;;;5032741;28;19932;-69
2023/07/01 00:38:31;;;;;;;;;;;;;;;;;;5032281;28;19925;-68
2023/07/01 00:40:57;;;;;;;;;;;;;;;;;;5031611;28;20305;-69
2023/07/01 00:43:24;;;;;;;;;;;;;;;;;;5032643;28;19925;-69
2023/07/01 00:45:50;;;;;;;;;;;;;;;;;;5031593;28;19931;-69
2023/07/01 00:48:22;;;;;;;;;;;;;;;;;;5030995;28;19947;-69
2023/07/01 00:50:48;;;;;;;;;;;;;;;;;;5031871;28;19932;-69
2023/07/01 00:53:14;;;;;;;;;;;;;;;;;;5032219;28;19932;-69
2023/07/01 00:55:41;;;;;;;;;;;;;;;;;;5031776;28;19932;-69
2023/07/01 00:58:07;;;;;;;;;;;;;;;;;;5032092;28;19931;-69
2023/07/01 01:00:34;;;;;;;;;;;;;;;;;;5031286;28;19929;-69
2023/07/01 01:03:04;;;;;;;;;;;;;;;;;;5032518;28;20015;-69
2023/07/01 01:05:35;;;;;;;;;;;;;;;;;;5031978;28;20493;-69
2023/07/01 01:08:04;;;;;;;;;;;;;;;;;;5032073;28;20323;-69
2023/07/01 01:10:32;;;;;;;;;;;;;;;;;;5031233;28;19925;-69
2023/07/01 01:12:59;;;;;;;;;;;;;;;;;;5032017;28;19945;-69
2023/07/01 01:15:25;;;;;;;;;;;;;;;;;;5031865;28;20023;-69
2023/07/01 01:17:52;;;;;;;;;;;;;;;;;;5031791;28;19925;-69
2023/07/01 01:20:20;;;;;;;;;;;;;;;;;;5031595;28;19994;-69
2023/07/01 01:22:50;;;;;;;;;;;;;;;;;;5031516;28;19972;-69
2023/07/01 01:25:20;;;;;;;;;;;;;;;;;;5031982;28;19925;-68
2023/07/01 01:27:48;;;;;;;;;;;;;;;;;;5031173;28;20433;-69
2023/07/01 01:30:14;;;;;;;;;;;;;;;;;;5031713;28;20314;-69
2023/07/01 01:32:40;;;;;;;;;;;;;;;;;;5031082;28;19979;-69
2023/07/01 01:35:07;;;;;;;;;;;;;;;;;;5031736;28;20027;-69
2023/07/01 01:37:37;;;;;;;;;;;;;;;;;;5031033;28;19929;-69
2023/07/01 01:40:09;;;;;;;;;;;;;;;;;;5030793;28;19935;-69
2023/07/01 01:42:38;;;;;;;;;;;;;;;;;;5030720;28;19951;-69
2023/07/01 01:45:07;;;;;;;;;;;;;;;;;;5031749;28;19925;-69
2023/07/01 01:47:34;;;;;;;;;;;;;;;;;;5031165;28;19929;-69
2023/07/01 01:50:02;;;;;;;;;;;;;;;;;;5031402;28;19925;-69
2023/07/01 01:52:30;;;;;;;;;;;;;;;;;;5031265;28;20338;-68
2023/07/01 01:54:57;;;;;;;;;;;;;;;;;;5031591;28;20367;-69
2023/07/01 01:57:24;;;;;;;;;;;;;;;;;;5031099;28;19925;-68
2023/07/01 01:59:51;;;;;;;;;;;;;;;;;;5030845;28;19932;-68
2023/07/01 02:02:19;;;;;;;;;;;;;;;;;;5031289;28;20383;-69
2023/07/01 02:04:45;;;;;;;;;;;;;;;;;;5031026;28;19932;-69
2023/07/01 02:07:12;;;;;;;;;;;;;;;;;;5031103;28;20401;-68
2023/07/01 02:09:38;;;;;;;;;;;;;;;;;;5030252;28;19925;-68
2023/07/01 02:12:05;;;;;;;;;;;;;;;;;;5031444;28;20019;-69
2023/07/01 02:14:32;;;;;;;;;;;;;;;;;;5030515;28;19932;-69
2023/07/01 02:16:58;;;;;;;;;;;;;;;;;;5030936;28;19935;-69
2023/07/01 02:19:26;;;;;;;;;;;;;;;;;;5030515;28;20016;-69
2023/07/01 02:21:52;;;;;;;;;;;;;;;;;;5030730;28;19925;-69
2023/07/01 02:24:19;;;;;;;;;;;;;;;;;;5030790;28;20421;-68
2023/07/01 02:26:46;;;;;;;;;;;;;;;;;;5030832;28;19925;-69
2023/07/01 02:29:12;;;;;;;;;;;;;;;;;;5030514;28;19925;-68
2023/07/01 02:31:38;;;;;;;;;;;;;;;;;;5030735;28;19932;-68
2023/07/01 02:34:05;;;;;;;;;;;;;;;;;;5031071;28;19925;-69
2023/07/01 02:36:32;;;;;;;;;;;;;;;;;;5030570;28;20327;-69
2023/07/01 02:38:59;;;;;;;;;;;;;;;;;;5030864;28;19925;-69
2023/07/01 02:41:25;;;;;;;;;;;;;;;;;;5029981;28;19925;-69
2023/07/01 02:43:51;;;;;;;;;;;;;;;;;;5030934;28;19925;-69
2023/07/01 02:46:18;;;;;;;;;;;;;;;;;;5030044;28;19925;-69
2023/07/01 02:48:44;;;;;;;;;;;;;;;;;;5030773;28;19929;-67
2023/07/01 02:51:11;;;;;;;;;;;;;;;;;;5029721;28;19926;-69
2023/07/01 02:53:38;;;;;;;;;;;;;;;;;;5030659;28;19936;-67
2023/07/01 02:56:05;;;;;;;;;;;;;;;;;;5030248;28;19925;-69
2023/07/01 02:58:31;;;;;;;;;;;;;;;;;;5030544;28;19925;-69
2023/07/01 03:00:58;;;;;;;;;;;;;;;;;;5030058;28;20401;-69
2023/07/01 03:03:24;;;;;;;;;;;;;;;;;;5030632;28;20438;-69
2023/07/01 03:05:50;;;;;;;;;;;;;;;;;;5030005;28;19925;-67
2023/07/01 03:08:17;;;;;;;;;;;;;;;;;;5030715;28;19925;-69
2023/07/01 03:10:45;;;;;;;;;;;;;;;;;;5031690;28;19925;-66
2023/07/01 03:13:11;;;;;;;;;;;;;;;;;;5034154;28;19936;-69
2023/07/01 03:15:37;;;;;;;;;;;;;;;;;;5034135;28;20390;-69
2023/07/01 03:18:04;;;;;;;;;;;;;;;;;;5033419;28;19936;-69
2023/07/01 03:20:30;;;;;;;;;;;;;;;;;;5033541;28;19940;-69
2023/07/01 03:22:57;;;;;;;;;;;;;;;;;;5033865;28;20303;-69
2023/07/01 03:25:24;;;;;;;;;;;;;;;;;;5034327;28;19983;-69
2023/07/01 03:27:52;;;;;;;;;;;;;;;;;;5033877;28;19925;-69
2023/07/01 03:30:19;;;;;;;;;;;;;;;;;;5033879;28;20383;-70
2023/07/01 03:32:46;;;;;;;;;;;;;;;;;;5033434;28;19948;-69
2023/07/01 03:35:12;;;;;;;;;;;;;;;;;;5034249;28;19932;-69
2023/07/01 03:37:39;;;;;;;;;;;;;;;;;;5033244;28;20003;-70
2023/07/01 03:40:10;;;;;;;;;;;;;;;;;;5046524;22;19929;-72
2023/07/01 03:42:36;;;;;;;;;;;;;;;;;;5034605;28;19980;-73
2023/07/01 03:45:05;;;;;;;;;;;;;;;;;;5034506;28;19925;-73
2023/07/01 03:47:31;;;;;;;;;;;;;;;;;;5034258;28;19932;-73
2023/07/01 03:49:58;;;;;;;;;;;;;;;;;;5033773;28;20103;-72
2023/07/01 03:52:24;;;;;;;;;;;;;;;;;;5034343;28;20080;-72
2023/07/01 03:54:51;;;;;;;;;;;;;;;;;;5033749;28;19961;-73
2023/07/01 03:57:17;;;;;;;;;;;;;;;;;;5033788;28;20016;-74
2023/07/01 03:59:43;;;;;;;;;;;;;;;;;;5033400;28;19925;-73
2023/07/01 04:02:11;;;;;;;;;;;;;;;;;;5033798;28;19935;-73
2023/07/01 04:04:38;;;;;;;;;;;;;;;;;;5033433;28;19925;-73
2023/07/01 04:07:05;;;;;;;;;;;;;;;;;;5033998;28;20419;-73
2023/07/01 04:09:31;;;;;;;;;;;;;;;;;;5033624;28;20310;-73
2023/07/01 04:11:58;;;;;;;;;;;;;;;;;;5033990;28;20023;-73
2023/07/01 04:14:24;;;;;;;;;;;;;;;;;;5033022;28;19932;-73
2023/07/01 04:16:51;;;;;;;;;;;;;;;;;;5033687;28;19925;-73
2023/07/01 04:19:19;;;;;;;;;;;;;;;;;;5033472;28;20015;-73
2023/07/01 04:21:45;;;;;;;;;;;;;;;;;;5032789;28;20351;-73
2023/07/01 04:24:11;;;;;;;;;;;;;;;;;;5033461;28;19929;-73
2023/07/01 04:26:38;;;;;;;;;;;;;;;;;;5032609;28;19925;-73
2023/07/01 04:29:04;;;;;;;;;;;;;;;;;;5033748;28;20345;-72
2023/07/01 04:31:31;;;;;;;;;;;;;;;;;;5032950;28;19925;-73
2023/07/01 04:33:57;;;;;;;;;;;;;;;;;;5033886;28;19979;-73
2023/07/01 04:36:25;;;;;;;;;;;;;;;;;;5032903;28;20351;-73
2023/07/01 04:38:51;;;;;;;;;;;;;;;;;;5033043;28;19997;-73
2023/07/01 04:41:18;;;;;;;;;;;;;;;;;;5032227;28;19925;-73
2023/07/01 04:43:44;;;;;;;;;;;;;;;;;;5033325;28;20087;-73
2023/07/01 04:46:11;;;;;;;;;;;;;;;;;;5033068;28;19969;-73
2023/07/01 04:48:37;;;;;;;;;;;;;;;;;;5033193;28;19925;-72
2023/07/01 04:51:03;;;;;;;;;;;;;;;;;;5033074;28;20010;-73
2023/07/01 04:53:31;;;;;;;;;;;;;;;;;;5032975;28;20298;-73
2023/07/01 04:55:58;;;;;;;;;;;;;;;;;;5033016;28;19931;-73
2023/07/01 04:58:24;;;;;;;;;;;;;;;;;;5032531;28;19925;-73
2023/07/01 05:00:51;;;;;;;;;;;;;;;;;;5032611;28;20027;-73
2023/07/01 05:03:18;;;;;;;;;;;;;;;;;;5032639;28;19925;-73
2023/07/01 05:05:44;;;;;;;;;;;;;;;;;;5033070;28;19961;-73
2023/07/01 05:08:10;;;;;;;;;;;;;;;;;;5032106;28;19955;-73
2023/07/01 05:10:38;;;;;;;;;;;;;;;;;;5032532;28;20313;-74
2023/07/01 05:13:05;;;;;;;;;;;;;;;;;;5032270;28;19941;-73
2023/07/01 05:15:31;;;;;;;;;;;;;;;;;;5032531;28;20015;-73
2023/07/01 05:17:58;;;;;;;;;;;;;;;;;;5032374;28;20412;-73
2023/07/01 05:20:24;;;;;;;;;;;;;;;;;;5032219;28;20313;-73
2023/07/01 05:22:50;;;;;;;;;;;;;;;;;;5032043;28;20012;-73
2023/07/01 05:25:17;;;;;;;;;;;;;;;;;;5032097;28;20035;-73
2023/07/01 05:27:45;;;;;;;;;;;;;;;;;;5031813;28;20003;-73
2023/07/01 05:30:11;;;;;;;;;;;;;;;;;;5032073;28;19956;-72
2023/07/01 05:32:38;;;;;;;;;;;;;;;;;;5032153;28;20011;-74
2023/07/01 05:35:05;;;;;;;;;;;;;;;;;;5031493;28;19925;-73
2023/07/01 05:37:31;;;;;;;;;;;;;;;;;;5032013;28;20289;-73
2023/07/01 05:39:57;;;;;;;;;;;;;;;;;;5030851;28;19931;-72
2023/07/01 05:42:24;;;;;;;;;;;;;;;;;;5031782;28;19925;-72
2023/07/01 05:44:52;;;;;;;;;;;;;;;;;;5031576;28;19935;-72
2023/07/01 05:47:18;;;;;;;;;;;;;;;;;;5031949;28;19932;-73
2023/07/01 05:49:44;;;;;;;;;;;;;;;;;;5031669;28;20404;-70
2023/07/01 05:52:11;;;;;;;;;;;;;;;;;;5032530;28;20004;-73
2023/07/01 05:54:37;;;;;;;;;;;;;;;;;;5031535;28;20353;-72
2023/07/01 05:57:04;;;;;;;;;;;;;;;;;;5031873;28;20004;-73
2023/07/01 05:59:30;;;;;;;;;;;;;;;;;;5031611;28;19975;-73
2023/07/01 06:01:58;;;;;;;;;;;;;;;;;;5032332;28;20327;-72
2023/07/01 06:04:25;;;;;;;;;;;;;;;;;;5031648;28;19932;-73
2023/07/01 06:06:51;;;;;;;;;;;;;;;;;;5031412;28;19936;-73
2023/07/01 06:09:18;;;;;;;;;;;;;;;;;;5031719;28;19933;-72
2023/07/01 06:11:44;;;;;;;;;;;;;;;;;;5031280;28;19925;-73
2023/07/01 06:14:11;;;;;;;;;;;;;;;;;;5031571;28;20341;-73
2023/07/01 06:16:37;;;;;;;;;;;;;;;;;;5031000;28;19929;-72
2023/07/01 06:19:06;;;;;;;;;;;;;;;;;;5031445;28;19925;-73
2023/07/01 06:21:32;;;;;;;;;;;;;;;;;;5031432;28;19925;-72
2023/07/01 06:23:58;;;;;;;;;;;;;;;;;;5031598;28;20346;-73
2023/07/01 06:26:25;;;;;;;;;;;;;;;;;;5031448;28;20007;-73
2023/07/01 06:28:51;;;;;;;;;;;;;;;;;;5031159;28;20015;-73
2023/07/01 06:31:18;;;;;;;;;;;;;;;;;;5031297;28;19925;-73
2023/07/01 06:33:45;;;;;;;;;;;;;;;;;;5031374;28;20008;-73
2023/07/01 06:36:14;;;;;;;;;;;;;;;;;;5031100;28;20012;-73
2023/07/01 06:38:41;;;;;;;;;;;;;;;;;;5030911;28;19979;-72
2023/07/01 06:41:07;;;;;;;;;;;;;;;;;;5031379;28;20414;-73
2023/07/01 06:43:37;;;;;;;;;;;;;;;;;;5030875;28;19936;-73
2023/07/01 06:46:03;;;;;;;;;;;;;;;;;;5034729;28;20008;-73
2023/07/01 06:48:30;;;;;;;;;;;;;;;;;;5034681;28;20312;-73
2023/07/01 06:50:56;;;;;;;;;;;;;;;;;;5035392;28;19925;-72
2023/07/01 06:53:24;;;;;;;;;;;;;;;;;;5035181;28;20000;-73
2023/07/01 06:55:50;;;;;;;;;;;;;;;;;;5035387;28;19931;-73
2023/07/01 06:58:17;;;;;;;;;;;;;;;;;;5034724;28;19929;-73
2023/07/01 07:00:43;;;;;;;;;;;;;;;;;;5035867;28;19929;-72
2023/07/01 07:03:10;;;;;;;;;;;;;;;;;;5034801;28;19960;-73
2023/07/01 07:05:36;;;;;;;;;;;;;;;;;;5035202;28;20299;-73
2023/07/01 07:08:03;;;;;;;;;;;;;;;;;;5034510;28;20406;-72
2023/07/01 07:10:30;;;;;;;;;;;;;;;;;;5035228;28;19983;-73
2023/07/01 07:12:57;;;;;;;;;;;;;;;;;;5035068;28;19925;-73
2023/07/01 07:15:23;;;;;;;;;;;;;;;;;;5034146;28;19972;-72
2023/07/01 07:17:50;;;;;;;;;;;;;;;;;;5034817;28;19985;-73
2023/07/01 07:20:16;;;;;;;;;;;;;;;;;;5034507;28;19925;-73
2023/07/01 07:22:42;;;;;;;;;;;;;;;;;;5034832;28;20037;-73
2023/07/01 07:25:14;;;;;;;;;;;;;;;;;;5034274;28;20036;-73
2023/07/01 07:27:42;;;;;;;;;;;;;;;;;;5034646;28;20371;-73
2023/07/01 07:30:09;;;;;;;;;;;;;;;;;;5034011;28;19936;-73
2023/07/01 07:32:35;;;;;;;;;;;;;;;;;;5035103;28;19975;-73
2023/07/01 07:35:01;;;;;;;;;;;;;;;;;;5033815;28;19948;-73
2023/07/01 07:37:29;;;;;;;;;;;;;;;;;;5034025;28;19929;-73
2023/07/01 07:39:56;;;;;;;;;;;;;;;;;;5033815;28;19925;-72
2023/07/01 07:42:22;;;;;;;;;;;;;;;;;;5034468;28;19925;-72
2023/07/01 07:44:50;;;;;;;;;;;;;;;;;;5034276;28;19925;-72
2023/07/01 07:47:16;;;;;;;;;;;;;;;;;;5034750;28;19925;-72
2023/07/01 07:49:42;;;;;;;;;;;;;;;;;;5033695;28;20017;-72
2023/07/01 07:52:09;;;;;;;;;;;;;;;;;;5033900;28;20024;-72
2023/07/01 07:54:35;;;;;;;;;;;;;;;;;;5033923;28;20016;-72
2023/07/01 07:57:02;;;;;;;;;;;;;;;;;;5032658;28;19925;-72
2023/07/01 07:59:28;;;;;;;;;;;;;;;;;;5034342;28;19983;-73
2023/07/01 08:01:57;;;;;;;;;;;;;;;;;;5033700;28;19925;-71
2023/07/01 08:04:24;;;;;;;;;;;;;;;;;;5034014;28;20019;-72
2023/07/01 08:06:52;;;;;;;;;;;;;;;;;;5033418;28;19967;-71
2023/07/01 08:09:18;;;;;;;;;;;;;;;;;;5033761;28;19951;-71
2023/07/01 08:11:45;;;;;;;;;;;;;;;;;;5032566;28;19975;-71
2023/07/01 08:14:11;;;;;;;;;;;;;;;;;;5032931;28;20028;-70
2023/07/01 08:16:38;;;;;;;;;;;;;;;;;;5032675;28;19983;-71
2023/07/01 08:19:06;;;;;;;;;;;;;;;;;;5033047;28;19925;-72
2023/07/01 08:21:35;;;;;;;;;;;;;;;;;;5032348;28;20408;-71
2023/07/01 08:24:02;;;;;;;;;;;;;;;;;;5033044;28;20046;-71
2023/07/01 08:26:28;;;;;;;;;;;;;;;;;;5032691;28;20016;-72
2023/07/01 08:28:55;;;;;;;;;;;;;;;;;;5032411;28;20373;-71
2023/07/01 08:31:22;;;;;;;;;;;;;;;;;;5032417;28;20012;-70
2023/07/01 08:33:48;;;;;;;;;;;;;;;;;;5033142;28;20008;-70
2023/07/01 08:36:16;;;;;;;;;;;;;;;;;;5033303;28;20172;-71
2023/07/01 08:38:42;;;;;;;;;;;;;;;;;;5032488;28;20012;-70
2023/07/01 08:41:10;;;;;;;;;;;;;;;;;;5033615;28;19925;-70
2023/07/01 08:43:38;;;;;;;;;;;;;;;;;;5033098;28;19931;-71
2023/07/01 08:46:09;;;;;;;;;;;;;;;;;;5033155;28;19963;-71
2023/07/01 08:48:35;;;;;;;;;;;;;;;;;;5032610;28;19925;-70
2023/07/01 08:51:06;;;;;;;;;;;;;;;;;;5033040;28;19925;-70
2023/07/01 08:53:34;;;;;;;;;;;;;;;;;;5032502;28;19925;-70
2023/07/01 08:56:01;;;;;;;;;;;;;;;;;;5033480;28;19931;-70
2023/07/01 08:58:28;;;;;;;;;;;;;;;;;;5032586;28;20015;-71
2023/07/01 09:00:55;;;;;;;;;;;;;;;;;;5032836;28;19925;-70
2023/07/01 09:03:22;;;;;;;;;;;;;;;;;;5032912;28;20437;-71
2023/07/01 09:05:49;;;;;;;;;;;;;;;;;;5032870;28;20408;-70
2023/07/01 09:08:15;;;;;;;;;;;;;;;;;;5031542;28;20029;-70
2023/07/01 09:10:43;;;;;;;;;;;;;;;;;;5032648;28;20020;-71
2023/07/01 09:13:10;;;;;;;;;;;;;;;;;;5032826;28;19929;-71
2023/07/01 09:15:42;;;;;;;;;;;;;;;;;;5033008;28;19932;-70
2023/07/01 09:18:18;;;;;;;;;;;;;;;;;;5032616;28;20030;-70
2023/07/01 09:20:45;;;;;;;;;;;;;;;;;;5032319;28;19925;-70
2023/07/01 09:23:11;;;;;;;;;;;;;;;;;;5032612;28;20294;-70
2023/07/01 09:25:38;;;;;;;;;;;;;;;;;;5031853;28;19967;-70
2023/07/01 09:28:05;;;;;;;;;;;;;;;;;;5032459;28;20242;-70
2023/07/01 09:30:32;;;;;;;;;;;;;;;;;;5031971;28;20338;-70
2023/07/01 09:33:12;;;;;;;;;;;;;;;;;;5032393;28;20392;-70
2023/07/01 09:35:42;;;;;;;;;;;;;;;;;;5032333;28;20019;-70
2023/07/01 09:38:09;;;;;;;;;;;;;;;;;;5031943;28;19944;-71
2023/07/01 09:40:35;;;;;;;;;;;;;;;;;;5031156;28;19968;-71
2023/07/01 09:43:02;;;;;;;;;;;;;;;;;;5032177;28;20007;-72
2023/07/01 09:45:30;;;;;;;;;;;;;;;;;;5031466;28;20016;-71
2023/07/01 09:47:56;;;;;;;;;;;;;;;;;;5030361;28;19932;-72
2023/07/01 09:50:23;;;;;;;;;;;;;;;;;;5031145;28;20392;-71
2023/07/01 09:52:52;;;;;;;;;;;;;;;;;;5031369;28;20309;-72
2023/07/01 09:55:18;;;;;;;;;;;;;;;;;;5031557;28;19976;-72
2023/07/01 09:57:45;;;;;;;;;;;;;;;;;;5031169;28;19929;-72
2023/07/01 10:00:15;;;;;;;;;;;;;;;;;;5031063;28;19947;-72
2023/07/01 10:02:43;;;;;;;;;;;;;;;;;;5030803;28;19972;-71
2023/07/01 10:05:09;;;;;;;;;;;;;;;;;;5031146;28;19929;-72
2023/07/01 10:07:36;;;;;;;;;;;;;;;;;;5030832;28;19926;-72
2023/07/01 10:10:02;;;;;;;;;;;;;;;;;;5030921;28;19926;-72
2023/07/01 10:12:30;;;;;;;;;;;;;;;;;;5030974;28;19976;-71
2023/07/01 10:14:58;;;;;;;;;;;;;;;;;;5031335;28;19925;-72
2023/07/01 10:17:44;;;;;;;;;;;;;;;;;;5031179;28;20428;-71
2023/07/01 10:20:25;;;;;;;;;;;;;;;;;;5031225;28;19951;-72
2023/07/01 10:22:53;;;;;;;;;;;;;;;;;;5030843;28;19932;-74
2023/07/01 10:25:29;;;;;;;;;;;;;;;;;;5030883;28;19929;-72
2023/07/01 10:28:13;;;;;;;;;;;;;;;;;;5031055;28;20386;-73
2023/07/01 10:30:58;;;;;;;;;;;;;;;;;;5030801;28;20023;-72
2023/07/01 10:33:42;;;;;;;;;;;;;;;;;;5030380;28;19925;-74
2023/07/01 10:36:10;;;;;;;;;;;;;;;;;;5031569;28;19925;-72
2023/07/01 10:38:38;;;;;;;;;;;;;;;;;;5030240;28;20012;-73
2023/07/01 10:41:04;;;;;;;;;;;;;;;;;;5030465;28;19932;-71
2023/07/01 10:43:32;;;;;;;;;;;;;;;;;;5031435;28;20378;-71
2023/07/01 10:46:09;;;;;;;;;;;;;;;;;;5030983;28;20001;-71
2023/07/01 10:48:35;;;;;;;;;;;;;;;;;;5030507;28;19928;-72
2023/07/01 10:51:03;;;;;;;;;;;;;;;;;;5029927;28;19929;-72
2023/07/01 10:53:31;;;;;;;;;;;;;;;;;;5031056;28;20023;-72
2023/07/01 10:56:11;;;;;;;;;;;;;;;;;;5030475;28;20043;-72
2023/07/01 10:58:37;;;;;;;;;;;;;;;;;;5030440;28;19926;-71
2023/07/01 11:01:04;;;;;;;;;;;;;;;;;;5030275;28;20400;-72
2023/07/01 11:03:49;;;;;;;;;;;;;;;;;;5030741;28;19955;-73
2023/07/01 11:06:16;;;;;;;;;;;;;;;;;;5030389;28;20020;-73
2023/07/01 11:08:50;;;;;;;;;;;;;;;;;;5030368;28;20020;-72
2023/07/01 11:11:20;;;;;;;;;;;;;;;;;;5029709;28;20020;-71
2023/07/01 11:13:57;;;;;;;;;;;;;;;;;;5030799;28;19925;-71
2023/07/01 11:16:23;;;;;;;;;;;;;;;;;;5030317;28;19932;-72
2023/07/01 11:18:50;;;;;;;;;;;;;;;;;;5030461;28;19929;-74
2023/07/01 11:21:19;;;;;;;;;;;;;;;;;;5030062;28;20305;-71
2023/07/01 11:23:52;;;;;;;;;;;;;;;;;;5030621;28;20358;-71
2023/07/01 11:26:19;;;;;;;;;;;;;;;;;;5029976;28;19925;-71
2023/07/01 11:28:46;;;;;;;;;;;;;;;;;;5030405;28;20150;-73
2023/07/01 11:31:15;;;;;;;;;;;;;;;;;;5030392;28;20462;-72
2023/07/01 11:33:43;;;;;;;;;;;;;;;;;;5033874;28;19925;-71
2023/07/01 11:36:10;;;;;;;;;;;;;;;;;;5033617;28;19928;-72
2023/07/01 11:38:37;;;;;;;;;;;;;;;;;;5033372;28;19991;-73
2023/07/01 11:41:04;;;;;;;;;;;;;;;;;;5033611;28;19925;-71
2023/07/01 11:43:33;;;;;;;;;;;;;;;;;;5032586;28;21446;-72
2023/07/01 11:45:59;;;;;;;;;;;;;;;;;;5033724;28;19925;-71
2023/07/01 11:48:29;;;;;;;;;;;;;;;;;;5033626;28;19925;-71
2023/07/01 11:50:55;;;;;;;;;;;;;;;;;;5033031;28;19929;-71
2023/07/01 11:53:22;;;;;;;;;;;;;;;;;;5033252;28;19932;-72
2023/07/01 11:55:48;;;;;;;;;;;;;;;;;;5033803;28;20016;-71
2023/07/01 11:58:26;;;;;;;;;;;;;;;;;;5032865;28;19925;-71
2023/07/01 12:00:52;;;;;;;;;;;;;;;;;;5032837;28;20012;-72
2023/07/01 12:03:18;;;;;;;;;;;;;;;;;;5032692;28;19925;-72
2023/07/01 12:05:45;;;;;;;;;;;;;;;;;;5033381;28;20286;-73
2023/07/01 12:08:11;;;;;;;;;;;;;;;;;;5033301;28;20301;-72
2023/07/01 12:10:38;;;;;;;;;;;;;;;;;;5032864;28;19925;-72
2023/07/01 12:13:05;;;;;;;;;;;;;;;;;;5033318;28;19933;-72
2023/07/01 12:15:33;;;;;;;;;;;;;;;;;;5033110;28;19925;-72
2023/07/01 12:18:18;;;;;;;;;;;;;;;;;;5033125;28;20067;-74
2023/07/01 12:20:45;;;;;;;;;;;;;;;;;;5032556;28;19925;-72
2023/07/01 12:23:11;;;;;;;;;;;;;;;;;;5033735;28;19976;-71
2023/07/01 12:25:38;;;;;;;;;;;;;;;;;;5032707;28;19987;-73
2023/07/01 12:28:04;;;;;;;;;;;;;;;;;;5033432;28;19932;-72
2023/07/01 12:30:31;;;;;;;;;;;;;;;;;;5032565;28;19976;-71
2023/07/01 12:32:58;;;;;;;;;;;;;;;;;;5033328;28;20342;-71
2023/07/01 12:35:25;;;;;;;;;;;;;;;;;;5032529;28;19935;-72
2023/07/01 12:37:52;;;;;;;;;;;;;;;;;;5033029;28;19987;-71
2023/07/01 12:40:19;;;;;;;;;;;;;;;;;;5032016;28;19932;-72
2023/07/01 12:42:51;;;;;;;;;;;;;;;;;;5032442;28;20028;-72
2023/07/01 12:45:17;;;;;;;;;;;;;;;;;;5032181;28;19935;-71
2023/07/01 12:47:44;;;;;;;;;;;;;;;;;;5032622;28;19979;-72
2023/07/01 12:50:12;;;;;;;;;;;;;;;;;;5031950;28;20386;-75
2023/07/01 12:52:38;;;;;;;;;;;;;;;;;;5032445;28;19931;-74
2023/07/01 12:55:08;;;;;;;;;;;;;;;;;;5032353;28;19972;-71
2023/07/01 12:57:35;;;;;;;;;;;;;;;;;;5031618;28;20300;-72
2023/07/01 13:00:01;;;;;;;;;;;;;;;;;;5032230;28;20329;-71
2023/07/01 13:02:28;;;;;;;;;;;;;;;;;;5032118;28;19971;-73
2023/07/01 13:04:59;;;;;;;;;;;;;;;;;;5032611;28;20412;-72
2023/07/01 13:07:27;;;;;;;;;;;;;;;;;;5031862;28;19925;-72
2023/07/01 13:09:55;;;;;;;;;;;;;;;;;;5031841;28;20285;-72
2023/07/01 13:12:24;;;;;;;;;;;;;;;;;;5032359;28;19929;-72
2023/07/01 13:14:51;;;;;;;;;;;;;;;;;;5032277;28;19940;-72
2023/07/01 13:17:18;;;;;;;;;;;;;;;;;;5031960;28;19933;-72
2023/07/01 13:19:45;;;;;;;;;;;;;;;;;;5031789;28;20289;-72
2023/07/01 13:22:13;;;;;;;;;;;;;;;;;;5031799;28;20003;-73
2023/07/01 13:24:43;;;;;;;;;;;;;;;;;;5031924;28;20016;-74
2023/07/01 13:27:12;;;;;;;;;;;;;;;;;;5031629;28;20314;-72
2023/07/01 13:29:38;;;;;;;;;;;;;;;;;;5031408;28;20020;-72
2023/07/01 13:32:05;;;;;;;;;;;;;;;;;;5031944;28;20012;-72
2023/07/01 13:34:36;;;;;;;;;;;;;;;;;;5031905;28;19935;-72
2023/07/01 13:37:03;;;;;;;;;;;;;;;;;;5026862;28;20347;-72
2023/07/01 13:39:37;;;;;;;;;;;;;;;;;;5011187;28;19938;-74
2023/07/01 13:42:05;;;;;;;;;;;;;;;;;;5012345;28;19926;-73
2023/07/01 13:44:36;;;;;;;;;;;;;;;;;;5011737;28;19930;-73
2023/07/01 13:47:04;;;;;;;;;;;;;;;;;;5011795;28;19960;-72
2023/07/01 13:49:31;;;;;;;;;;;;;;;;;;5010925;28;19932;-74
2023/07/01 13:51:57;;;;;;;;;;;;;;;;;;5011410;28;19926;-71
2023/07/01 13:54:25;;;;;;;;;;;;;;;;;;5010810;28;20298;-73
2023/07/01 13:56:52;;;;;;;;;;;;;;;;;;5011510;28;20286;-72
2023/07/01 13:59:20;;;;;;;;;;;;;;;;;;5011124;28;19976;-72
2023/07/01 14:01:52;;;;;;;;;;;;;;;;;;5011168;28;19926;-72
2023/07/01 14:04:21;;;;;;;;;;;;;;;;;;5010961;28;19930;-72
2023/07/01 14:06:47;;;;;;;;;;;;;;;;;;5011255;28;20020;-73
2023/07/01 14:09:19;;;;;;;;;;;;;;;;;;5011362;28;19931;-73
2023/07/01 14:11:46;;;;;;;;;;;;;;;;;;5011199;28;19925;-73
2023/07/01 14:14:19;;;;;;;;;;;;;;;;;;5011627;28;20020;-73
2023/07/01 14:16:47;;;;;;;;;;;;;;;;;;5010660;28;19980;-73
2023/07/01 14:19:16;;;;;;;;;;;;;;;;;;5011960;28;19925;-72
2023/07/01 14:21:42;;;;;;;;;;;;;;;;;;5011292;28;19929;-73
2023/07/01 14:24:13;;;;;;;;;;;;;;;;;;5011934;28;19926;-73
2023/07/01 14:26:42;;;;;;;;;;;;;;;;;;5011237;28;19929;-75
2023/07/01 14:29:09;;;;;;;;;;;;;;;;;;5011619;28;20391;-73
2023/07/01 14:31:35;;;;;;;;;;;;;;;;;;5011066;28;20222;-73
2023/07/01 14:34:04;;;;;;;;;;;;;;;;;;5011637;28;20049;-73
2023/07/01 14:36:32;;;;;;;;;;;;;;;;;;5011337;28;20388;-72
2023/07/01 14:38:59;;;;;;;;;;;;;;;;;;5011822;28;20004;-73
2023/07/01 14:41:28;;;;;;;;;;;;;;;;;;5011003;28;20431;-72
2023/07/01 14:43:55;;;;;;;;;;;;;;;;;;5011982;28;19929;-73
2023/07/01 14:46:22;;;;;;;;;;;;;;;;;;5011154;28;20308;-72
2023/07/01 14:48:49;;;;;;;;;;;;;;;;;;5012253;28;20294;-72
2023/07/01 14:51:17;;;;;;;;;;;;;;;;;;5011334;28;19925;-72
2023/07/01 14:53:46;;;;;;;;;;;;;;;;;;5011362;28;20310;-72
2023/07/01 14:56:13;;;;;;;;;;;;;;;;;;5011807;28;20302;-72
2023/07/01 14:58:40;;;;;;;;;;;;;;;;;;5011178;28;19984;-72
2023/07/01 15:01:06;;;;;;;;;;;;;;;;;;5011263;28;19925;-73
2023/07/01 15:03:33;;;;;;;;;;;;;;;;;;5011522;28;19973;-72
2023/07/01 15:06:00;;;;;;;;;;;;;;;;;;5011976;28;20341;-72
2023/07/01 15:08:28;;;;;;;;;;;;;;;;;;5015000;28;20000;-71
2023/07/01 15:10:54;;;;;;;;;;;;;;;;;;5014162;28;20013;-70
2023/07/01 15:13:23;;;;;;;;;;;;;;;;;;5014039;28;19929;-72
2023/07/01 15:15:49;;;;;;;;;;;;;;;;;;5014910;28;20347;-70
2023/07/01 15:18:16;;;;;;;;;;;;;;;;;;5014334;28;19980;-71
2023/07/01 15:20:42;;;;;;;;;;;;;;;;;;5014417;28;19981;-70
2023/07/01 15:23:09;;;;;;;;;;;;;;;;;;5014514;28;19925;-73
2023/07/01 15:25:37;;;;;;;;;;;;;;;;;;5014474;28;19926;-70
2023/07/01 15:28:03;;;;;;;;;;;;;;;;;;5014273;28;19926;-71
2023/07/01 15:30:30;;;;;;;;;;;;;;;;;;5013989;28;20383;-70
2023/07/01 15:32:56;;;;;;;;;;;;;;;;;;5014793;28;19925;-70
2023/07/01 15:35:23;;;;;;;;;;;;;;;;;;5013730;28;19937;-70
2023/07/01 15:37:49;;;;;;;;;;;;;;;;;;5014258;28;19968;-71
2023/07/01 15:40:16;;;;;;;;;;;;;;;;;;5042027;22;19968;-68
2023/07/01 15:42:45;;;;;;;;;;;;;;;;;;5034172;28;19925;-68
2023/07/01 15:45:11;;;;;;;;;;;;;;;;;;5034081;28;19931;-69
2023/07/01 15:47:38;;;;;;;;;;;;;;;;;;5034794;28;20320;-68
2023/07/01 15:50:04;;;;;;;;;;;;;;;;;;5033572;28;20020;-68
2023/07/01 15:52:31;;;;;;;;;;;;;;;;;;5034225;28;20412;-68
2023/07/01 15:54:57;;;;;;;;;;;;;;;;;;5033404;28;19925;-68
2023/07/01 15:57:24;;;;;;;;;;;;;;;;;;5033956;28;20116;-68
2023/07/01 15:59:52;;;;;;;;;;;;;;;;;;5033783;28;20370;-68
2023/07/01 16:02:18;;;;;;;;;;;;;;;;;;5033967;28;19931;-68
2023/07/01 16:04:46;;;;;;;;;;;;;;;;;;5034247;28;20008;-68
2023/07/01 16:07:29;;;;;;;;;;;;;;;;;;5033665;28;20306;-68
2023/07/01 16:10:00;;;;;;;;;;;;;;;;;;5033797;28;20404;-68
2023/07/01 16:12:30;;;;;;;;;;;;;;;;;;5033412;28;19925;-68
2023/07/01 16:15:00;;;;;;;;;;;;;;;;;;5033723;28;19971;-68
2023/07/01 16:17:27;;;;;;;;;;;;;;;;;;5033108;28;19925;-68
2023/07/01 16:19:53;;;;;;;;;;;;;;;;;;5033632;28;19925;-68
2023/07/01 16:22:22;;;;;;;;;;;;;;;;;;5033038;28;19947;-68
2023/07/01 16:24:52;;;;;;;;;;;;;;;;;;5033406;28;20293;-68
2023/07/01 16:27:19;;;;;;;;;;;;;;;;;;5033084;28;19925;-68
2023/07/01 16:29:46;;;;;;;;;;;;;;;;;;5033502;28;19931;-68
2023/07/01 16:32:18;;;;;;;;;;;;;;;;;;5032965;28;19925;-68
2023/07/01 16:34:45;;;;;;;;;;;;;;;;;;5033049;28;19925;-68
2023/07/01 16:37:11;;;;;;;;;;;;;;;;;;5033044;28;20028;-68
2023/07/01 16:39:39;;;;;;;;;;;;;;;;;;5032698;28;19932;-69
2023/07/01 16:42:06;;;;;;;;;;;;;;;;;;5032566;28;20378;-68
2023/07/01 16:44:32;;;;;;;;;;;;;;;;;;5032815;28;20007;-69
2023/07/01 16:46:58;;;;;;;;;;;;;;;;;;5032915;28;19925;-68
2023/07/01 16:49:26;;;;;;;;;;;;;;;;;;5032767;28;20468;-69